sensor_id;sensor_type;location;lat;lon;timestamp;pressure;altitude;pressure_sealevel;temperature;humidity
4022;BME280;2025;48.260;16.432;2022-08-03T00:00:19;99981.59;;;18.19;100.00
4022;BME280;2025;48.260;16.432;2022-08-03T00:02:48;99974.56;;;18.16;100.00
4022;BME280;2025;48.260;16.432;2022-08-03T00:05:15;99977.22;;;18.16;100.00
4022;BME280;2025;48.260;16.432;2022-08-03T00:07:42;99977.25;;;18.15;100.00
4022;BME280;2025;48.260;16.432;2022-08-03T00:10:09;99980.00;;;18.10;100.00
4022;BME280;2025;48.260;16.432;2022-08-03T00:12:36;99988.00;;;18.07;100.00
4022;BME280;2025;48.260;16.432;2022-08-03T00:15:05;99982.75;;;18.04;100.00
4022;BME280;2025;48.260;16.432;2022-08-03T00:17:33;99986.28;;;18.05;100.00
4022;BME280;2025;48.260;16.432;2022-08-03T00:20:00;99985.44;;;18.03;100.00
4022;BME280;2025;48.260;16.432;2022-08-03T00:22:27;99973.19;;;17.95;100.00
4022;BME280;2025;48.260;16.432;2022-08-03T00:24:54;99975.78;;;17.99;100.00
4022;BME280;2025;48.260;16.432;2022-08-03T00:27:21;99972.31;;;17.95;100.00
4022;BME280;2025;48.260;16.432;2022-08-03T00:29:48;99975.91;;;17.91;100.00
4022;BME280;2025;48.260;16.432;2022-08-03T00:32:15;99972.47;;;17.86;100.00
4022;BME280;2025;48.260;16.432;2022-08-03T00:34:43;99973.41;;;17.83;100.00
4022;BME280;2025;48.260;16.432;2022-08-03T00:37:10;99966.41;;;17.79;100.00
4022;BME280;2025;48.260;16.432;2022-08-03T00:39:37;99967.28;;;17.80;100.00
4022;BME280;2025;48.260;16.432;2022-08-03T00:42:06;99966.41;;;17.79;100.00
4022;BME280;2025;48.260;16.432;2022-08-03T00:44:38;99960.28;;;17.76;100.00
4022;BME280;2025;48.260;16.432;2022-08-03T00:47:05;99955.00;;;17.74;100.00
4022;BME280;2025;48.260;16.432;2022-08-03T00:49:33;99954.16;;;17.72;100.00
4022;BME280;2025;48.260;16.432;2022-08-03T00:52:01;99963.03;;;17.70;100.00
4022;BME280;2025;48.260;16.432;2022-08-03T00:54:28;99966.63;;;17.67;100.00
4022;BME280;2025;48.260;16.432;2022-08-03T00:56:55;99957.84;;;17.62;100.00
4022;BME280;2025;48.260;16.432;2022-08-03T00:59:22;99954.34;;;17.60;100.00
4022;BME280;2025;48.260;16.432;2022-08-03T01:01:49;99960.56;;;17.57;100.00
4022;BME280;2025;48.260;16.432;2022-08-03T01:04:16;99944.66;;;17.59;100.00
4022;BME280;2025;48.260;16.432;2022-08-03T01:06:49;99952.56;;;17.60;100.00
4022;BME280;2025;48.260;16.432;2022-08-03T01:09:24;99949.94;;;17.59;100.00
4022;BME280;2025;48.260;16.432;2022-08-03T01:12:01;99944.69;;;17.56;100.00
4022;BME280;2025;48.260;16.432;2022-08-03T01:14:33;99950.00;;;17.56;100.00
4022;BME280;2025;48.260;16.432;2022-08-03T01:17:09;99945.69;;;17.50;100.00
4022;BME280;2025;48.260;16.432;2022-08-03T01:19:44;99936.84;;;17.50;100.00
4022;BME280;2025;48.260;16.432;2022-08-03T01:22:38;99934.22;;;17.48;100.00
4022;BME280;2025;48.260;16.432;2022-08-03T01:25:14;99935.09;;;17.49;100.00
4022;BME280;2025;48.260;16.432;2022-08-03T01:27:57;99924.56;;;17.46;100.00
4022;BME280;2025;48.260;16.432;2022-08-03T01:30:31;99924.59;;;17.43;100.00
4022;BME280;2025;48.260;16.432;2022-08-03T01:33:01;99921.13;;;17.39;100.00
4022;BME280;2025;48.260;16.432;2022-08-03T01:35:33;99922.03;;;17.38;100.00
4022;BME280;2025;48.260;16.432;2022-08-03T01:38:02;99919.41;;;17.37;100.00
4022;BME280;2025;48.260;16.432;2022-08-03T01:40:33;99908.81;;;17.37;100.00
4022;BME280;2025;48.260;16.432;2022-08-03T01:43:03;99902.66;;;17.36;100.00
4022;BME280;2025;48.260;16.432;2022-08-03T01:45:35;99888.56;;;17.34;100.00
4022;BME280;2025;48.260;16.432;2022-08-03T01:48:04;99889.44;;;17.35;100.00
4022;BME280;2025;48.260;16.432;2022-08-03T01:50:33;99890.31;;;17.35;100.00
4022;BME280;2025;48.260;16.432;2022-08-03T01:53:01;99903.63;;;17.29;100.00
4022;BME280;2025;48.260;16.432;2022-08-03T01:55:28;99897.59;;;17.19;100.00
4022;BME280;2025;48.260;16.432;2022-08-03T01:57:59;99898.50;;;17.18;100.00
4022;BME280;2025;48.260;16.432;2022-08-03T02:00:28;99903.78;;;17.18;100.00
4022;BME280;2025;48.260;16.432;2022-08-03T02:02:57;99898.50;;;17.18;100.00
4022;BME280;2025;48.260;16.432;2022-08-03T02:05:26;99897.66;;;17.16;100.00
4022;BME280;2025;48.260;16.432;2022-08-03T02:07:53;99888.81;;;17.17;100.00
4022;BME280;2025;48.260;16.432;2022-08-03T02:10:22;99888.81;;;17.16;100.00
4022;BME280;2025;48.260;16.432;2022-08-03T02:12:51;99902.09;;;17.14;100.00
4022;BME280;2025;48.260;16.432;2022-08-03T02:15:19;99899.47;;;17.13;100.00
4022;BME280;2025;48.260;16.432;2022-08-03T02:17:48;99885.44;;;17.08;100.00
4022;BME280;2025;48.260;16.432;2022-08-03T02:20:17;99883.75;;;17.02;100.00
4022;BME280;2025;48.260;16.432;2022-08-03T02:22:45;99885.53;;;17.00;100.00
4022;BME280;2025;48.260;16.432;2022-08-03T02:25:14;99880.31;;;16.97;100.00
4022;BME280;2025;48.260;16.432;2022-08-03T02:27:50;99886.44;;;16.99;100.00
4022;BME280;2025;48.260;16.432;2022-08-03T02:30:18;99879.44;;;16.96;100.00
4022;BME280;2025;48.260;16.432;2022-08-03T02:32:50;99886.50;;;16.96;100.00
4022;BME280;2025;48.260;16.432;2022-08-03T02:35:23;99890.97;;;16.92;100.00
4022;BME280;2025;48.260;16.432;2022-08-03T02:37:57;99881.34;;;16.87;100.00
4022;BME280;2025;48.260;16.432;2022-08-03T02:40:27;99879.59;;;16.86;100.00
4022;BME280;2025;48.260;16.432;2022-08-03T02:43:09;99873.41;;;16.85;100.00
4022;BME280;2025;48.260;16.432;2022-08-03T02:45:41;99863.66;;;16.89;100.00
4022;BME280;2025;48.260;16.432;2022-08-03T02:48:10;99875.09;;;16.91;100.00
4022;BME280;2025;48.260;16.432;2022-08-03T02:50:42;99875.13;;;16.89;100.00
4022;BME280;2025;48.260;16.432;2022-08-03T02:53:10;99883.09;;;16.86;100.00
4022;BME280;2025;48.260;16.432;2022-08-03T02:55:38;99880.50;;;16.83;100.00
4022;BME280;2025;48.260;16.432;2022-08-03T02:58:07;99874.34;;;16.83;100.00
4022;BME280;2025;48.260;16.432;2022-08-03T03:00:36;99877.00;;;16.83;100.00
4022;BME280;2025;48.260;16.432;2022-08-03T03:03:05;99876.16;;;16.79;100.00
4022;BME280;2025;48.260;16.432;2022-08-03T03:05:33;99870.00;;;16.77;100.00
4022;BME280;2025;48.260;16.432;2022-08-03T03:08:03;99871.81;;;16.75;100.00
4022;BME280;2025;48.260;16.432;2022-08-03T03:10:30;99863.84;;;16.77;100.00
4022;BME280;2025;48.260;16.432;2022-08-03T03:12:59;99866.50;;;16.75;100.00
4022;BME280;2025;48.260;16.432;2022-08-03T03:15:28;99863.91;;;16.74;100.00
4022;BME280;2025;48.260;16.432;2022-08-03T03:17:56;99872.78;;;16.70;100.00
4022;BME280;2025;48.260;16.432;2022-08-03T03:20:26;99870.16;;;16.68;100.00
4022;BME280;2025;48.260;16.432;2022-08-03T03:22:54;99856.03;;;16.69;100.00
4022;BME280;2025;48.260;16.432;2022-08-03T03:25:23;99857.81;;;16.67;100.00
4022;BME280;2025;48.260;16.432;2022-08-03T03:27:50;99862.22;;;16.66;100.00
4022;BME280;2025;48.260;16.432;2022-08-03T03:30:18;99863.13;;;16.64;100.00
4022;BME280;2025;48.260;16.432;2022-08-03T03:32:45;99867.53;;;16.66;100.00
4022;BME280;2025;48.260;16.432;2022-08-03T03:35:12;99870.13;;;16.70;100.00
4022;BME280;2025;48.260;16.432;2022-08-03T03:37:39;99867.53;;;16.65;100.00
4022;BME280;2025;48.260;16.432;2022-08-03T03:40:07;99856.06;;;16.66;100.00
4022;BME280;2025;48.260;16.432;2022-08-03T03:42:36;99848.13;;;16.64;100.00
4022;BME280;2025;48.260;16.432;2022-08-03T03:45:04;99859.56;;;16.68;100.00
4022;BME280;2025;48.260;16.432;2022-08-03T03:47:32;99851.56;;;16.73;100.00
4022;BME280;2025;48.260;16.432;2022-08-03T03:50:00;99855.00;;;16.78;100.00
4022;BME280;2025;48.260;16.432;2022-08-03T03:52:27;99854.16;;;16.76;100.00
4022;BME280;2025;48.260;16.432;2022-08-03T03:54:54;99853.25;;;16.77;100.00
4022;BME280;2025;48.260;16.432;2022-08-03T03:57:21;99862.06;;;16.79;100.00
4022;BME280;2025;48.260;16.432;2022-08-03T03:59:50;99863.88;;;16.75;100.00
4022;BME280;2025;48.260;16.432;2022-08-03T04:02:17;99861.25;;;16.74;100.00
4022;BME280;2025;48.260;16.432;2022-08-03T04:04:44;99866.44;;;16.80;100.00
4022;BME280;2025;48.260;16.432;2022-08-03T04:07:36;99866.34;;;16.86;100.00
4022;BME280;2025;48.260;16.432;2022-08-03T04:10:27;99862.75;;;16.90;100.00
4022;BME280;2025;48.260;16.432;2022-08-03T04:13:14;99857.44;;;16.93;100.00
4022;BME280;2025;48.260;16.432;2022-08-03T04:15:45;99858.97;;;17.06;100.00
4022;BME280;2025;48.260;16.432;2022-08-03T04:18:13;99872.16;;;17.09;100.00
4022;BME280;2025;48.260;16.432;2022-08-03T04:20:44;99871.22;;;17.13;100.00
4022;BME280;2025;48.260;16.432;2022-08-03T04:23:14;99874.69;;;17.17;100.00
4022;BME280;2025;48.260;16.432;2022-08-03T04:25:42;99864.91;;;17.20;100.00
4022;BME280;2025;48.260;16.432;2022-08-03T04:28:10;99873.63;;;17.27;100.00
4022;BME280;2025;48.260;16.432;2022-08-03T04:30:39;99881.47;;;17.36;100.00
4022;BME280;2025;48.260;16.432;2022-08-03T04:33:14;99882.13;;;17.49;100.00
4022;BME280;2025;48.260;16.432;2022-08-03T04:35:43;99876.72;;;17.55;100.00
4022;BME280;2025;48.260;16.432;2022-08-03T04:38:12;99881.84;;;17.64;100.00
4022;BME280;2025;48.260;16.432;2022-08-03T04:40:41;99882.63;;;17.71;100.00
4022;BME280;2025;48.260;16.432;2022-08-03T04:43:10;99887.81;;;17.78;100.00
4022;BME280;2025;48.260;16.432;2022-08-03T04:45:39;99884.00;;;17.93;100.00
4022;BME280;2025;48.260;16.432;2022-08-03T04:48:07;99895.22;;;18.06;100.00
4022;BME280;2025;48.260;16.432;2022-08-03T04:50:35;99907.41;;;18.16;100.00
4022;BME280;2025;48.260;16.432;2022-08-03T04:53:04;99924.69;;;18.35;100.00
4022;BME280;2025;48.260;16.432;2022-08-03T04:55:32;99929.75;;;18.47;100.00
4022;BME280;2025;48.260;16.432;2022-08-03T04:58:00;99932.13;;;18.61;100.00
4022;BME280;2025;48.260;16.432;2022-08-03T05:00:27;99936.25;;;18.76;100.00
4022;BME280;2025;48.260;16.432;2022-08-03T05:02:55;99964.25;;;18.89;100.00
4022;BME280;2025;48.260;16.432;2022-08-03T05:05:22;99965.75;;;19.02;100.00
4022;BME280;2025;48.260;16.432;2022-08-03T05:07:50;99982.19;;;19.19;100.00
4022;BME280;2025;48.260;16.432;2022-08-03T05:10:17;100015.47;;;19.36;100.00
4022;BME280;2025;48.260;16.432;2022-08-03T05:12:46;100019.56;;;19.50;100.00
4022;BME280;2025;48.260;16.432;2022-08-03T05:15:13;100027.28;;;19.63;100.00
4022;BME280;2025;48.260;16.432;2022-08-03T05:17:40;100028.75;;;19.74;100.00
4022;BME280;2025;48.260;16.432;2022-08-03T05:20:09;100032.00;;;19.87;100.00
4022;BME280;2025;48.260;16.432;2022-08-03T05:22:36;100037.94;;;19.97;100.00
4022;BME280;2025;48.260;16.432;2022-08-03T05:25:05;100034.91;;;20.12;100.00
4022;BME280;2025;48.260;16.432;2022-08-03T05:27:32;100040.88;;;20.20;100.00
4022;BME280;2025;48.260;16.432;2022-08-03T05:29:59;100047.56;;;20.36;100.00
4022;BME280;2025;48.260;16.432;2022-08-03T05:32:26;100043.63;;;20.51;100.00
4022;BME280;2025;48.260;16.432;2022-08-03T05:34:53;100044.38;;;20.56;100.00
4022;BME280;2025;48.260;16.432;2022-08-03T05:37:20;100045.09;;;20.63;100.00
4022;BME280;2025;48.260;16.432;2022-08-03T05:39:47;100049.44;;;20.65;100.00
4022;BME280;2025;48.260;16.432;2022-08-03T05:42:16;100049.16;;;20.76;100.00
4022;BME280;2025;48.260;16.432;2022-08-03T05:44:43;100051.59;;;20.85;100.00
4022;BME280;2025;48.260;16.432;2022-08-03T05:47:10;100051.28;;;20.96;100.00
4022;BME280;2025;48.260;16.432;2022-08-03T05:49:37;100047.78;;;20.94;100.00
4022;BME280;2025;48.260;16.432;2022-08-03T05:52:04;100044.06;;;20.99;100.00
4022;BME280;2025;48.260;16.432;2022-08-03T05:54:31;100044.75;;;21.06;100.00
4022;BME280;2025;48.260;16.432;2022-08-03T05:56:58;100050.25;;;21.00;100.00
4022;BME280;2025;48.260;16.432;2022-08-03T05:59:26;100045.59;;;21.08;100.00
4022;BME280;2025;48.260;16.432;2022-08-03T06:01:53;100047.88;;;21.20;100.00
4022;BME280;2025;48.260;16.432;2022-08-03T06:04:20;100051.31;;;21.25;100.00
4022;BME280;2025;48.260;16.432;2022-08-03T06:06:47;100052.91;;;21.31;100.00
4022;BME280;2025;48.260;16.432;2022-08-03T06:09:15;100052.50;;;21.44;100.00
4022;BME280;2025;48.260;16.432;2022-08-03T06:11:42;100045.03;;;21.56;100.00
4022;BME280;2025;48.260;16.432;2022-08-03T06:14:09;100050.63;;;21.74;100.00
4022;BME280;2025;48.260;16.432;2022-08-03T06:16:37;100057.47;;;21.83;100.00
4022;BME280;2025;48.260;16.432;2022-08-03T06:19:04;100060.91;;;21.87;100.00
4022;BME280;2025;48.260;16.432;2022-08-03T06:21:31;100052.75;;;21.91;100.00
4022;BME280;2025;48.260;16.432;2022-08-03T06:23:58;100047.28;;;21.96;100.00
4022;BME280;2025;48.260;16.432;2022-08-03T06:26:26;100054.94;;;22.06;100.00
4022;BME280;2025;48.260;16.432;2022-08-03T06:28:53;100066.19;;;22.16;100.00
4022;BME280;2025;48.260;16.432;2022-08-03T06:31:22;100062.28;;;22.26;100.00
4022;BME280;2025;48.260;16.432;2022-08-03T06:33:51;100062.06;;;22.32;100.00
4022;BME280;2025;48.260;16.432;2022-08-03T06:36:18;100066.25;;;22.39;100.00
4022;BME280;2025;48.260;16.432;2022-08-03T06:38:45;100063.16;;;22.52;100.00
4022;BME280;2025;48.260;16.432;2022-08-03T06:41:12;100063.63;;;22.64;100.00
4022;BME280;2025;48.260;16.432;2022-08-03T06:43:39;100077.75;;;22.68;100.00
4022;BME280;2025;48.260;16.432;2022-08-03T06:46:06;100068.59;;;22.75;100.00
4022;BME280;2025;48.260;16.432;2022-08-03T06:48:35;100071.38;;;22.97;100.00
4022;BME280;2025;48.260;16.432;2022-08-03T06:51:03;100074.81;;;23.00;100.00
4022;BME280;2025;48.260;16.432;2022-08-03T06:53:30;100067.47;;;23.06;100.00
4022;BME280;2025;48.260;16.432;2022-08-03T06:55:57;100075.50;;;23.06;100.00
4022;BME280;2025;48.260;16.432;2022-08-03T06:58:24;100069.91;;;23.12;100.00
4022;BME280;2025;48.260;16.432;2022-08-03T07:00:51;100075.09;;;23.16;100.00
4022;BME280;2025;48.260;16.432;2022-08-03T07:03:19;100064.38;;;23.63;100.00
4022;BME280;2025;48.260;16.432;2022-08-03T07:05:45;100066.13;;;23.86;100.00
4022;BME280;2025;48.260;16.432;2022-08-03T07:08:15;100070.84;;;24.01;100.00
4022;BME280;2025;48.260;16.432;2022-08-03T07:10:44;100073.16;;;24.32;100.00
4022;BME280;2025;48.260;16.432;2022-08-03T07:13:11;100071.56;;;24.48;100.00
4022;BME280;2025;48.260;16.432;2022-08-03T07:15:39;100069.34;;;24.38;100.00
4022;BME280;2025;48.260;16.432;2022-08-03T07:18:06;100067.34;;;24.21;100.00
4022;BME280;2025;48.260;16.432;2022-08-03T07:20:33;100069.47;;;24.35;100.00
4022;BME280;2025;48.260;16.432;2022-08-03T07:23:00;100069.16;;;24.42;100.00
4022;BME280;2025;48.260;16.432;2022-08-03T07:25:28;100064.81;;;24.60;100.00
4022;BME280;2025;48.260;16.432;2022-08-03T07:27:55;100064.06;;;24.77;100.00
4022;BME280;2025;48.260;16.432;2022-08-03T07:30:22;100069.75;;;24.69;100.00
4022;BME280;2025;48.260;16.432;2022-08-03T07:32:49;100070.66;;;24.88;100.00
4022;BME280;2025;48.260;16.432;2022-08-03T07:35:16;100070.81;;;24.85;100.00
4022;BME280;2025;48.260;16.432;2022-08-03T07:37:43;100064.50;;;24.86;100.00
4022;BME280;2025;48.260;16.432;2022-08-03T07:40:11;100062.97;;;25.01;100.00
4022;BME280;2025;48.260;16.432;2022-08-03T07:42:39;100059.00;;;25.10;100.00
4022;BME280;2025;48.260;16.432;2022-08-03T07:45:08;100066.41;;;25.42;100.00
4022;BME280;2025;48.260;16.432;2022-08-03T07:47:35;100062.91;;;25.40;100.00
4022;BME280;2025;48.260;16.432;2022-08-03T07:50:06;100059.28;;;25.41;100.00
4022;BME280;2025;48.260;16.432;2022-08-03T07:52:33;100065.66;;;25.57;100.00
4022;BME280;2025;48.260;16.432;2022-08-03T07:55:18;100052.78;;;25.66;100.00
4022;BME280;2025;48.260;16.432;2022-08-03T07:58:04;100064.81;;;25.76;100.00
4022;BME280;2025;48.260;16.432;2022-08-03T08:00:32;100058.97;;;25.85;100.00
4022;BME280;2025;48.260;16.432;2022-08-03T08:02:59;100057.34;;;26.00;100.00
4022;BME280;2025;48.260;16.432;2022-08-03T08:05:26;100061.66;;;26.04;100.00
4022;BME280;2025;48.260;16.432;2022-08-03T08:07:54;100057.03;;;25.88;100.00
4022;BME280;2025;48.260;16.432;2022-08-03T08:10:21;100061.13;;;26.32;100.00
4022;BME280;2025;48.260;16.432;2022-08-03T08:12:49;100068.75;;;26.41;100.00
4022;BME280;2025;48.260;16.432;2022-08-03T08:15:16;100066.38;;;26.52;100.00
4022;BME280;2025;48.260;16.432;2022-08-03T08:17:45;100073.47;;;26.53;100.00
4022;BME280;2025;48.260;16.432;2022-08-03T08:20:16;100067.00;;;26.57;100.00
4022;BME280;2025;48.260;16.432;2022-08-03T08:22:43;100061.63;;;26.57;100.00
4022;BME280;2025;48.260;16.432;2022-08-03T08:25:10;100059.69;;;26.76;100.00
4022;BME280;2025;48.260;16.432;2022-08-03T08:27:42;100057.31;;;26.88;100.00
4022;BME280;2025;48.260;16.432;2022-08-03T08:30:14;100065.38;;;26.88;100.00
4022;BME280;2025;48.260;16.432;2022-08-03T08:32:42;100055.25;;;26.93;100.00
4022;BME280;2025;48.260;16.432;2022-08-03T08:35:10;100058.06;;;27.07;100.00
4022;BME280;2025;48.260;16.432;2022-08-03T08:37:37;100058.72;;;27.28;100.00
4022;BME280;2025;48.260;16.432;2022-08-03T08:40:06;100060.78;;;27.23;100.00
4022;BME280;2025;48.260;16.432;2022-08-03T08:42:36;100059.94;;;27.22;97.50
4022;BME280;2025;48.260;16.432;2022-08-03T08:45:04;100061.94;;;27.34;100.00
4022;BME280;2025;48.260;16.432;2022-08-03T08:47:36;100068.38;;;27.47;95.91
4022;BME280;2025;48.260;16.432;2022-08-03T08:50:05;100055.59;;;27.35;99.67
4022;BME280;2025;48.260;16.432;2022-08-03T08:52:33;100061.50;;;27.58;97.46
4022;BME280;2025;48.260;16.432;2022-08-03T08:55:02;100059.56;;;27.77;88.57
4022;BME280;2025;48.260;16.432;2022-08-03T08:57:30;100050.38;;;27.81;87.03
4022;BME280;2025;48.260;16.432;2022-08-03T09:00:00;100063.91;;;27.79;86.13
4022;BME280;2025;48.260;16.432;2022-08-03T09:02:28;100061.38;;;27.92;78.73
4022;BME280;2025;48.260;16.432;2022-08-03T09:04:58;100061.81;;;28.00;85.16
4022;BME280;2025;48.260;16.432;2022-08-03T09:07:27;100055.00;;;28.09;85.60
4022;BME280;2025;48.260;16.432;2022-08-03T09:09:54;100057.56;;;27.96;90.40
4022;BME280;2025;48.260;16.432;2022-08-03T09:12:21;100055.19;;;28.06;91.42
4022;BME280;2025;48.260;16.432;2022-08-03T09:14:48;100061.84;;;28.30;87.55
4022;BME280;2025;48.260;16.432;2022-08-03T09:17:15;100062.19;;;28.54;92.58
4022;BME280;2025;48.260;16.432;2022-08-03T09:20:05;100054.63;;;28.31;84.48
4022;BME280;2025;48.260;16.432;2022-08-03T09:22:34;100046.78;;;28.56;80.46
4022;BME280;2025;48.260;16.432;2022-08-03T09:25:03;100048.22;;;28.48;88.83
4022;BME280;2025;48.260;16.432;2022-08-03T09:27:41;100039.69;;;28.69;80.98
4022;BME280;2025;48.260;16.432;2022-08-03T09:30:12;100048.84;;;28.81;89.15
4022;BME280;2025;48.260;16.432;2022-08-03T09:32:40;100045.72;;;29.03;78.30
4022;BME280;2025;48.260;16.432;2022-08-03T09:35:11;100034.72;;;28.92;75.65
4022;BME280;2025;48.260;16.432;2022-08-03T09:37:39;100036.56;;;28.91;78.57
4022;BME280;2025;48.260;16.432;2022-08-03T09:40:07;100039.97;;;28.79;86.02
4022;BME280;2025;48.260;16.432;2022-08-03T09:42:34;100034.34;;;28.84;76.42
4022;BME280;2025;48.260;16.432;2022-08-03T09:45:04;100032.00;;;28.78;74.98
4022;BME280;2025;48.260;16.432;2022-08-03T09:47:33;100028.50;;;28.61;74.51
4022;BME280;2025;48.260;16.432;2022-08-03T09:50:01;100031.06;;;29.07;72.72
4022;BME280;2025;48.260;16.432;2022-08-03T09:52:31;100029.13;;;29.23;75.93
4022;BME280;2025;48.260;16.432;2022-08-03T09:54:59;100022.72;;;29.38;79.91
4022;BME280;2025;48.260;16.432;2022-08-03T09:57:27;100032.03;;;29.76;73.30
4022;BME280;2025;48.260;16.432;2022-08-03T10:00:07;100026.78;;;29.87;72.26
4022;BME280;2025;48.260;16.432;2022-08-03T10:02:37;100025.22;;;29.42;65.46
4022;BME280;2025;48.260;16.432;2022-08-03T10:05:05;100020.44;;;29.47;67.81
4022;BME280;2025;48.260;16.432;2022-08-03T10:07:42;100024.97;;;29.46;65.53
4022;BME280;2025;48.260;16.432;2022-08-03T10:10:14;100020.78;;;29.41;64.94
4022;BME280;2025;48.260;16.432;2022-08-03T10:12:42;100013.53;;;29.14;67.33
4022;BME280;2025;48.260;16.432;2022-08-03T10:15:10;100001.38;;;29.21;68.01
4022;BME280;2025;48.260;16.432;2022-08-03T10:17:38;100002.19;;;29.36;69.73
4022;BME280;2025;48.260;16.432;2022-08-03T10:20:08;100010.13;;;29.80;63.16
4022;BME280;2025;48.260;16.432;2022-08-03T10:22:37;100011.16;;;29.65;59.03
4022;BME280;2025;48.260;16.432;2022-08-03T10:25:10;100003.50;;;29.72;64.92
4022;BME280;2025;48.260;16.432;2022-08-03T10:27:40;99992.84;;;30.10;65.43
4022;BME280;2025;48.260;16.432;2022-08-03T10:30:10;100003.38;;;30.40;57.20
4022;BME280;2025;48.260;16.432;2022-08-03T10:32:40;100001.59;;;30.78;51.54
4022;BME280;2025;48.260;16.432;2022-08-03T10:35:10;99988.13;;;31.15;59.88
4022;BME280;2025;48.260;16.432;2022-08-03T10:37:40;99991.50;;;31.55;50.27
4022;BME280;2025;48.260;16.432;2022-08-03T10:40:12;99986.03;;;31.44;39.85
4022;BME280;2025;48.260;16.432;2022-08-03T10:42:41;99988.47;;;31.59;43.40
4022;BME280;2025;48.260;16.432;2022-08-03T10:45:17;99986.81;;;31.20;50.90
4022;BME280;2025;48.260;16.432;2022-08-03T10:47:45;99989.28;;;31.73;52.80
4022;BME280;2025;48.260;16.432;2022-08-03T10:50:13;99988.41;;;31.96;56.95
4022;BME280;2025;48.260;16.432;2022-08-03T10:52:54;99984.00;;;31.71;62.37
4022;BME280;2025;48.260;16.432;2022-08-03T10:55:34;99983.75;;;31.74;51.54
4022;BME280;2025;48.260;16.432;2022-08-03T10:58:52;99971.69;;;31.18;47.00
4022;BME280;2025;48.260;16.432;2022-08-03T11:01:48;99973.81;;;31.62;45.62
4022;BME280;2025;48.260;16.432;2022-08-03T11:04:19;99974.03;;;31.10;48.18
4022;BME280;2025;48.260;16.432;2022-08-03T11:06:46;99973.31;;;31.57;52.64
4022;BME280;2025;48.260;16.432;2022-08-03T11:09:18;99974.31;;;32.15;53.74
4022;BME280;2025;48.260;16.432;2022-08-03T11:15:09;99973.19;;;32.06;44.31
4022;BME280;2025;48.260;16.432;2022-08-03T11:17:36;99959.25;;;31.52;44.38
4022;BME280;2025;48.260;16.432;2022-08-03T11:23:08;99960.38;;;31.73;43.15
4022;BME280;2025;48.260;16.432;2022-08-03T11:26:11;99961.50;;;31.82;41.88
4022;BME280;2025;48.260;16.432;2022-08-03T11:28:40;99967.75;;;32.06;42.77
4022;BME280;2025;48.260;16.432;2022-08-03T11:34:21;99963.31;;;31.34;43.49
4022;BME280;2025;48.260;16.432;2022-08-03T11:37:20;99962.06;;;31.98;42.73
4022;BME280;2025;48.260;16.432;2022-08-03T11:39:53;99949.56;;;32.19;43.79
4022;BME280;2025;48.260;16.432;2022-08-03T11:42:43;99954.09;;;32.08;43.69
4022;BME280;2025;48.260;16.432;2022-08-03T11:45:13;99954.59;;;31.78;39.42
4022;BME280;2025;48.260;16.432;2022-08-03T11:47:41;99943.09;;;31.50;34.45
4022;BME280;2025;48.260;16.432;2022-08-03T11:50:10;99949.09;;;31.43;38.95
4022;BME280;2025;48.260;16.432;2022-08-03T11:52:39;99942.47;;;31.47;38.95
4022;BME280;2025;48.260;16.432;2022-08-03T11:55:10;99949.72;;;32.29;41.62
4022;BME280;2025;48.260;16.432;2022-08-03T11:57:38;99949.53;;;32.66;37.77
4022;BME280;2025;48.260;16.432;2022-08-03T12:00:35;99943.28;;;31.84;37.20
4022;BME280;2025;48.260;16.432;2022-08-03T12:03:04;99944.97;;;32.55;39.61
4022;BME280;2025;48.260;16.432;2022-08-03T12:08:29;99936.13;;;32.87;36.17
4022;BME280;2025;48.260;16.432;2022-08-03T12:10:57;99938.97;;;32.96;40.30
4022;BME280;2025;48.260;16.432;2022-08-03T12:13:24;99941.16;;;33.25;36.54
4022;BME280;2025;48.260;16.432;2022-08-03T12:15:53;99929.34;;;32.12;39.69
4022;BME280;2025;48.260;16.432;2022-08-03T12:18:21;99927.22;;;32.05;41.05
4022;BME280;2025;48.260;16.432;2022-08-03T12:20:51;99927.34;;;32.61;44.79
4022;BME280;2025;48.260;16.432;2022-08-03T12:23:19;99923.41;;;32.07;40.86
4022;BME280;2025;48.260;16.432;2022-08-03T12:25:46;99931.03;;;32.02;39.66
4022;BME280;2025;48.260;16.432;2022-08-03T12:28:16;99934.94;;;32.33;40.77
4022;BME280;2025;48.260;16.432;2022-08-03T12:30:45;99926.72;;;32.57;38.84
4022;BME280;2025;48.260;16.432;2022-08-03T12:33:18;99929.75;;;31.60;39.34
4022;BME280;2025;48.260;16.432;2022-08-03T12:36:04;99920.00;;;31.57;38.04
4022;BME280;2025;48.260;16.432;2022-08-03T12:38:32;99919.44;;;32.58;38.60
4022;BME280;2025;48.260;16.432;2022-08-03T12:41:04;99912.19;;;33.03;36.00
4022;BME280;2025;48.260;16.432;2022-08-03T12:43:33;99913.63;;;33.40;37.98
4022;BME280;2025;48.260;16.432;2022-08-03T12:46:11;99917.22;;;33.30;33.47
4022;BME280;2025;48.260;16.432;2022-08-03T12:49:03;99925.38;;;33.30;36.09
4022;BME280;2025;48.260;16.432;2022-08-03T12:51:37;99904.16;;;33.12;34.36
4022;BME280;2025;48.260;16.432;2022-08-03T12:54:36;99909.81;;;33.21;31.55
4022;BME280;2025;48.260;16.432;2022-08-03T12:57:05;99909.75;;;33.86;35.60
4022;BME280;2025;48.260;16.432;2022-08-03T12:59:34;99900.31;;;34.53;41.04
4022;BME280;2025;48.260;16.432;2022-08-03T13:02:03;99899.38;;;33.48;33.88
4022;BME280;2025;48.260;16.432;2022-08-03T13:04:32;99904.16;;;34.29;39.11
4022;BME280;2025;48.260;16.432;2022-08-03T13:07:02;99899.59;;;34.09;42.58
4022;BME280;2025;48.260;16.432;2022-08-03T13:09:39;99899.94;;;33.95;39.74
4022;BME280;2025;48.260;16.432;2022-08-03T13:12:08;99896.13;;;32.55;34.44
4022;BME280;2025;48.260;16.432;2022-08-03T13:14:36;99887.13;;;31.86;37.71
4022;BME280;2025;48.260;16.432;2022-08-03T13:17:07;99887.44;;;32.16;37.35
4022;BME280;2025;48.260;16.432;2022-08-03T13:19:34;99883.06;;;32.71;37.70
4022;BME280;2025;48.260;16.432;2022-08-03T13:22:14;99878.88;;;32.67;36.17
4022;BME280;2025;48.260;16.432;2022-08-03T13:24:42;99886.28;;;32.88;35.27
4022;BME280;2025;48.260;16.432;2022-08-03T13:27:10;99889.06;;;32.19;35.96